createdAt,value
2022-12-14T00:01:54.136Z,11.35
2022-12-14T00:04:21.969Z,11.57
2022-12-14T00:06:49.512Z,12.32
2022-12-14T00:09:17.056Z,11.68
2022-12-14T00:11:44.902Z,10.70
2022-12-14T00:14:12.489Z,12.05
2022-12-14T00:16:40.055Z,11.57
2022-12-14T00:19:08.043Z,11.45
2022-12-14T00:21:35.693Z,11.60
2022-12-14T00:24:03.851Z,10.57
2022-12-14T00:26:33.226Z,11.25
2022-12-14T00:29:02.126Z,10.98
2022-12-14T00:31:31.444Z,9.65
2022-12-14T00:33:59.784Z,9.43
2022-12-14T00:36:27.864Z,9.77
2022-12-14T00:38:55.446Z,10.30
2022-12-14T00:41:23.526Z,9.80
2022-12-14T00:43:51.241Z,9.73
2022-12-14T00:46:18.905Z,9.63
2022-12-14T00:48:47.098Z,9.52
2022-12-14T00:51:18.467Z,9.77
2022-12-14T00:53:45.983Z,9.93
2022-12-14T00:56:14.174Z,11.38
2022-12-14T00:58:41.722Z,10.43
2022-12-14T01:01:13.787Z,9.90
2022-12-14T01:03:42.321Z,10.23
2022-12-14T01:06:20.793Z,10.25
2022-12-14T01:08:49.071Z,9.93
2022-12-14T01:11:16.625Z,10.70
2022-12-14T01:13:44.167Z,10.90
2022-12-14T01:16:14.644Z,11.43
2022-12-14T01:18:43.460Z,10.68
2022-12-14T01:21:16.428Z,10.02
2022-12-14T01:23:45.438Z,11.45
2022-12-14T01:26:17.626Z,10.65
2022-12-14T01:28:47.437Z,10.45
2022-12-14T01:31:18.624Z,11.73
2022-12-14T01:36:19.585Z,10.80
2022-12-14T01:38:47.804Z,11.93
2022-12-14T01:41:35.504Z,13.52
2022-12-14T01:44:09.151Z,13.20
2022-12-14T01:46:44.439Z,14.15
2022-12-14T01:49:34.234Z,11.85
2022-12-14T01:52:04.836Z,13.80
2022-12-14T01:54:35.752Z,12.37
2022-12-14T01:57:03.956Z,11.33
2022-12-14T01:59:35.618Z,12.07
2022-12-14T02:04:37.929Z,10.18
2022-12-14T02:07:05.641Z,10.98
2022-12-14T02:09:38.908Z,10.30
2022-12-14T02:12:12.683Z,11.48
2022-12-14T02:14:41.871Z,11.02
2022-12-14T02:17:12.421Z,11.15
2022-12-14T02:19:44.039Z,11.12
2022-12-14T02:22:20.388Z,10.20
2022-12-14T02:25:06.851Z,10.43
2022-12-14T02:28:02.786Z,9.85
2022-12-14T02:30:38.585Z,11.40
2022-12-14T02:33:41.239Z,10.95
2022-12-14T02:36:18.631Z,9.02
2022-12-14T02:39:11.710Z,9.95
2022-12-14T02:41:55.996Z,9.25
2022-12-14T02:44:51.739Z,9.40
2022-12-14T02:47:42.742Z,10.00
2022-12-14T02:50:17.487Z,9.75
2022-12-14T02:53:02.866Z,9.90
2022-12-14T02:55:42.497Z,9.57
2022-12-14T02:58:31.430Z,10.45
2022-12-14T03:00:59.996Z,10.45
2022-12-14T03:03:28.894Z,10.35
2022-12-14T03:06:03.184Z,10.25
2022-12-14T03:08:35.525Z,9.82
2022-12-14T03:11:06.724Z,9.20
2022-12-14T03:13:58.455Z,9.82
2022-12-14T03:16:31.897Z,9.45
2022-12-14T03:19:08.971Z,10.15
2022-12-14T03:21:44.249Z,9.48
2022-12-14T03:24:18.910Z,9.82
2022-12-14T03:27:05.010Z,9.52
2022-12-14T03:29:39.981Z,8.98
2022-12-14T03:32:14.020Z,9.85
2022-12-14T03:34:49.573Z,10.57
2022-12-14T03:37:32.499Z,9.32
2022-12-14T03:40:00.980Z,10.07
2022-12-14T03:42:50.340Z,10.15
2022-12-14T03:45:23.626Z,9.32
2022-12-14T03:48:23.181Z,9.98
2022-12-14T03:51:10.510Z,7.87
2022-12-14T03:53:54.669Z,8.82
2022-12-14T03:56:34.686Z,8.10
2022-12-14T03:59:15.046Z,8.48
2022-12-14T04:02:07.866Z,8.00
2022-12-14T04:05:09.420Z,6.60
2022-12-14T04:07:50.598Z,8.05
2022-12-14T04:10:43.621Z,8.00
2022-12-14T04:13:41.379Z,7.40
2022-12-14T04:16:34.841Z,7.03
2022-12-14T04:19:08.428Z,8.68
2022-12-14T04:21:42.506Z,7.43
2022-12-14T04:24:35.593Z,8.30
2022-12-14T04:27:17.971Z,7.18
2022-12-14T04:29:57.534Z,7.90
2022-12-14T04:32:25.385Z,8.75
2022-12-14T04:35:09.888Z,9.60
2022-12-14T04:37:41.763Z,8.82
2022-12-14T04:40:29.719Z,9.20
2022-12-14T04:43:03.582Z,9.32
2022-12-14T04:45:41.938Z,9.13
2022-12-14T04:48:25.079Z,9.93
2022-12-14T04:51:01.081Z,9.43
2022-12-14T04:53:34.848Z,7.80
2022-12-14T04:56:26.801Z,8.85
2022-12-14T04:58:54.965Z,7.80
2022-12-14T05:01:41.371Z,8.30
2022-12-14T05:04:18.308Z,9.25
2022-12-14T05:07:02.949Z,8.70
2022-12-14T05:09:37.631Z,8.13
2022-12-14T05:12:15.975Z,7.25
2022-12-14T05:14:52.044Z,8.32
2022-12-14T05:17:19.845Z,7.85
2022-12-14T05:19:49.357Z,9.70
2022-12-14T05:22:18.137Z,9.48
2022-12-14T05:24:45.627Z,9.38
2022-12-14T05:27:13.479Z,9.02
2022-12-14T05:29:41.027Z,10.30
2022-12-14T05:32:12.351Z,8.75
2022-12-14T05:37:11.617Z,7.05
2022-12-14T05:39:42.606Z,7.47
2022-12-14T05:42:10.362Z,9.63
2022-12-14T05:44:37.935Z,8.05
2022-12-14T05:47:05.802Z,10.48
2022-12-14T05:49:33.470Z,9.18
2022-12-14T05:52:01.029Z,9.05
2022-12-14T05:54:28.848Z,10.00
2022-12-14T05:56:56.446Z,10.60
2022-12-14T05:59:23.995Z,9.75
2022-12-14T06:01:51.899Z,10.98
2022-12-14T06:04:20.265Z,8.73
2022-12-14T06:06:47.955Z,9.93
2022-12-14T06:09:16.765Z,8.23
2022-12-14T06:11:45.979Z,10.27
2022-12-14T06:14:14.193Z,10.95
2022-12-14T06:16:43.838Z,11.43
2022-12-14T06:19:13.055Z,8.50
2022-12-14T06:21:42.146Z,8.80
2022-12-14T06:24:12.074Z,9.30
2022-12-14T06:26:43.432Z,8.35
2022-12-14T06:29:18.119Z,8.48
2022-12-14T06:31:49.170Z,8.18
2022-12-14T06:34:18.882Z,7.68
2022-12-14T06:36:47.678Z,10.93
2022-12-14T06:39:17.106Z,11.25
2022-12-14T06:41:49.832Z,9.23
2022-12-14T06:44:17.716Z,8.95
2022-12-14T06:46:45.437Z,10.55
2022-12-14T06:49:15.085Z,10.48
2022-12-14T06:51:43.834Z,7.68
2022-12-14T06:54:12.468Z,9.07
2022-12-14T06:56:41.749Z,8.95
2022-12-14T06:59:11.504Z,10.50
2022-12-14T07:01:40.422Z,8.73
2022-12-14T07:04:09.432Z,11.55
2022-12-14T07:06:41.415Z,10.68
2022-12-14T07:09:12.926Z,9.65
2022-12-14T07:11:41.341Z,8.65
2022-12-14T07:14:14.708Z,10.18
2022-12-14T07:16:46.505Z,9.85
2022-12-14T07:19:16.254Z,10.50
2022-12-14T07:21:44.551Z,10.18
2022-12-14T07:24:12.599Z,10.95
2022-12-14T07:26:40.285Z,11.30
2022-12-14T07:29:09.330Z,10.23
2022-12-14T07:31:37.064Z,9.43
2022-12-14T07:34:04.616Z,11.35
2022-12-14T07:36:33.057Z,9.60
2022-12-14T07:39:00.609Z,9.18
2022-12-14T07:41:31.585Z,10.65
2022-12-14T07:44:01.379Z,7.62
2022-12-14T07:46:30.593Z,8.00
2022-12-14T07:48:59.274Z,11.48
2022-12-14T07:51:33.286Z,9.65
2022-12-14T07:54:01.984Z,13.50
2022-12-14T07:56:32.747Z,11.68
2022-12-14T07:59:02.817Z,10.57
2022-12-14T08:01:33.946Z,10.60
2022-12-14T08:04:11.213Z,10.68
2022-12-14T08:06:40.763Z,10.05
2022-12-14T08:09:10.774Z,9.82
2022-12-14T08:11:38.515Z,9.90
2022-12-14T08:14:10.953Z,10.45
2022-12-14T08:16:38.841Z,9.68
2022-12-14T08:19:06.426Z,10.55
2022-12-14T08:21:34.155Z,10.57
2022-12-14T08:24:02.132Z,11.50
2022-12-14T08:26:35.262Z,11.63
2022-12-14T08:29:04.450Z,10.82
2022-12-14T08:31:33.152Z,10.25
2022-12-14T08:34:02.101Z,11.15
2022-12-14T08:36:32.920Z,11.68
2022-12-14T08:39:03.551Z,10.25
2022-12-14T08:41:32.089Z,9.93
2022-12-14T08:44:00.964Z,10.23
2022-12-14T08:46:30.711Z,9.25
2022-12-14T08:48:59.128Z,9.90
2022-12-14T08:51:28.095Z,9.93
2022-12-14T08:53:56.922Z,10.18
2022-12-14T08:56:27.433Z,11.45
2022-12-14T08:58:55.814Z,10.70
2022-12-14T09:01:32.236Z,10.80
2022-12-14T09:04:07.764Z,10.68
2022-12-14T09:06:38.199Z,9.38
2022-12-14T09:09:13.671Z,7.93
2022-12-14T09:11:44.862Z,9.20
2022-12-14T09:14:12.778Z,10.20
2022-12-14T09:16:40.624Z,10.32
2022-12-14T09:19:08.314Z,9.73
2022-12-14T09:21:36.296Z,9.02
2022-12-14T09:24:06.439Z,9.75
2022-12-14T09:26:33.984Z,9.02
2022-12-14T09:29:01.940Z,10.52
2022-12-14T09:31:29.662Z,10.68
2022-12-14T09:33:57.264Z,10.60
2022-12-14T09:36:28.084Z,9.73
2022-12-14T09:38:56.638Z,8.38
2022-12-14T09:41:36.266Z,9.25
2022-12-14T09:44:24.863Z,9.82
2022-12-14T09:47:13.586Z,8.70
2022-12-14T09:49:48.805Z,9.48
2022-12-14T09:52:24.639Z,7.68
2022-12-14T09:54:55.221Z,8.93
2022-12-14T09:57:43.656Z,8.02
2022-12-14T10:00:18.086Z,8.45
2022-12-14T10:03:23.846Z,9.80
2022-12-14T10:05:51.657Z,9.75
2022-12-14T10:08:39.132Z,11.63
2022-12-14T10:11:16.365Z,10.88
2022-12-14T10:14:12.460Z,10.20
2022-12-14T10:17:30.344Z,8.77
2022-12-14T10:20:28.252Z,8.60
2022-12-14T10:22:56.630Z,9.15
2022-12-14T10:25:31.193Z,9.35
2022-12-14T10:28:11.139Z,9.57
2022-12-14T10:30:42.364Z,9.02
2022-12-14T10:33:29.630Z,9.20
2022-12-14T10:36:25.970Z,8.93
2022-12-14T10:39:07.222Z,8.82
2022-12-14T10:41:44.121Z,9.27
2022-12-14T10:44:30.568Z,8.65
2022-12-14T10:47:05.330Z,9.88
2022-12-14T10:49:47.650Z,10.45
2022-12-14T10:52:22.714Z,9.07
2022-12-14T10:54:54.650Z,10.70
2022-12-14T10:57:26.537Z,10.48
2022-12-14T11:02:41.588Z,8.15
2022-12-14T11:05:24.040Z,9.43
2022-12-14T11:07:52.349Z,10.02
2022-12-14T11:10:26.684Z,11.02
2022-12-14T11:12:59.555Z,9.60
2022-12-14T11:15:37.933Z,11.55
2022-12-14T11:18:17.520Z,10.85
2022-12-14T11:21:14.999Z,11.00
2022-12-14T11:23:46.073Z,9.68
2022-12-14T11:26:25.829Z,11.52
2022-12-14T11:28:56.580Z,12.37
2022-12-14T11:31:32.781Z,10.77
2022-12-14T11:34:03.367Z,11.48
2022-12-14T11:36:36.970Z,11.80
2022-12-14T11:39:14.025Z,11.12
2022-12-14T11:41:44.754Z,11.40
2022-12-14T11:44:18.168Z,10.10
2022-12-14T11:47:01.179Z,11.93
2022-12-14T11:49:39.376Z,10.60
2022-12-14T11:52:13.212Z,11.07
2022-12-14T11:54:49.672Z,10.30
2022-12-14T11:57:20.712Z,10.35
2022-12-14T11:59:59.360Z,10.85
2022-12-14T12:02:39.751Z,11.52
2022-12-14T12:05:18.820Z,11.83
2022-12-14T12:07:49.437Z,11.32
2022-12-14T12:10:20.710Z,12.40
2022-12-14T12:13:01.433Z,10.70
2022-12-14T12:15:39.966Z,10.18
2022-12-14T12:18:22.616Z,11.05
2022-12-14T12:20:56.527Z,10.98
2022-12-14T12:23:32.417Z,10.85
2022-12-14T12:26:04.686Z,10.27
2022-12-14T12:28:36.495Z,10.13
2022-12-14T12:31:11.253Z,11.15
2022-12-14T12:33:46.777Z,12.05
2022-12-14T12:36:23.580Z,11.50
2022-12-14T12:39:06.891Z,12.15
2022-12-14T12:41:41.468Z,11.23
2022-12-14T12:44:24.335Z,11.55
2022-12-14T12:47:24.780Z,10.45
2022-12-14T12:49:55.415Z,10.60
2022-12-14T12:52:28.849Z,13.38
2022-12-14T12:55:09.469Z,11.00
2022-12-14T12:57:43.218Z,10.43
2022-12-14T13:00:18.162Z,11.60
2022-12-14T13:03:12.836Z,10.50
2022-12-14T13:05:47.321Z,10.48
2022-12-14T13:08:33.588Z,10.38
2022-12-14T13:11:25.650Z,10.93
2022-12-14T13:14:05.432Z,9.68
2022-12-14T13:16:38.070Z,10.82
2022-12-14T13:19:54.607Z,11.15
2022-12-14T13:22:27.872Z,12.05
2022-12-14T13:25:00.269Z,11.60
2022-12-14T13:27:52.819Z,10.65
2022-12-14T13:30:23.078Z,11.63
2022-12-14T13:33:15.292Z,9.90
2022-12-14T13:35:59.883Z,9.45
2022-12-14T13:38:48.760Z,9.57
2022-12-14T13:41:25.784Z,9.52
2022-12-14T13:44:17.651Z,10.93
2022-12-14T13:46:46.014Z,10.07
2022-12-14T13:49:22.320Z,10.05
2022-12-14T13:51:51.752Z,10.25
2022-12-14T13:54:38.668Z,10.63
2022-12-14T13:57:15.167Z,11.15
2022-12-14T13:59:48.717Z,10.20
2022-12-14T14:02:32.339Z,10.30
2022-12-14T14:05:16.229Z,10.25
2022-12-14T14:07:53.690Z,10.32
2022-12-14T14:10:37.411Z,10.80
2022-12-14T14:13:29.839Z,10.88
2022-12-14T14:16:26.853Z,11.93
2022-12-14T14:19:17.983Z,11.32
2022-12-14T14:22:25.252Z,11.77
2022-12-14T14:24:55.589Z,10.73
2022-12-14T14:27:50.090Z,10.77
2022-12-14T14:30:41.204Z,10.18
2022-12-14T14:33:48.699Z,9.48
2022-12-14T14:36:37.285Z,9.57
2022-12-14T14:39:47.131Z,9.75
2022-12-14T14:42:22.431Z,11.43
2022-12-14T14:44:54.965Z,10.35
2022-12-14T14:47:28.957Z,11.10
2022-12-14T14:50:23.235Z,11.73
2022-12-14T14:53:00.835Z,10.60
2022-12-14T14:58:22.729Z,11.45
2022-12-14T15:01:08.186Z,13.10
2022-12-14T15:03:48.218Z,13.95
2022-12-14T15:06:21.318Z,14.63
2022-12-14T15:09:02.112Z,13.70
2022-12-14T15:11:40.631Z,13.23
2022-12-14T15:14:20.310Z,12.32
2022-12-14T15:16:48.237Z,14.23
2022-12-14T15:19:24.060Z,15.13
2022-12-14T15:21:57.586Z,13.43
2022-12-14T15:24:26.483Z,11.85
2022-12-14T15:26:54.383Z,11.48
2022-12-14T15:29:27.897Z,11.38
2022-12-14T15:32:00.612Z,10.85
2022-12-14T15:34:28.442Z,11.23
2022-12-14T15:36:57.671Z,10.48
2022-12-14T15:39:39.911Z,10.35
2022-12-14T15:42:12.647Z,10.18
2022-12-14T15:44:49.175Z,10.32
2022-12-14T15:47:30.935Z,11.05
2022-12-14T15:50:22.242Z,11.18
2022-12-14T15:52:52.782Z,10.55
2022-12-14T15:55:36.262Z,12.05
2022-12-14T15:58:20.174Z,11.35
2022-12-14T16:00:50.536Z,12.60
2022-12-14T16:03:43.614Z,11.12
2022-12-14T16:06:12.728Z,10.48
2022-12-14T16:08:50.406Z,11.15
2022-12-14T16:11:26.514Z,12.90
2022-12-14T16:13:58.116Z,13.05
2022-12-14T16:16:25.895Z,30.80
2022-12-14T16:19:08.639Z,26.95
2022-12-14T16:21:49.623Z,28.90
2022-12-14T16:24:25.590Z,28.77
2022-12-14T16:27:00.906Z,15.15
2022-12-14T16:29:33.714Z,13.68
2022-12-14T16:32:09.926Z,33.13
2022-12-14T16:34:37.976Z,22.30
2022-12-14T16:37:31.592Z,18.42
2022-12-14T16:39:54.481Z,11.10
2022-12-14T16:42:26.953Z,11.40
2022-12-14T16:44:55.010Z,12.68
2022-12-14T16:47:51.512Z,12.95
2022-12-14T16:50:55.914Z,12.52
2022-12-14T16:53:16.931Z,13.32
2022-12-14T16:56:06.714Z,15.07
2022-12-14T16:58:36.240Z,19.87
2022-12-14T17:01:07.861Z,14.60
2022-12-14T17:03:37.469Z,16.40
2022-12-14T17:06:07.394Z,15.25
2022-12-14T17:08:36.392Z,12.65
2022-12-14T17:11:04.443Z,12.30
2022-12-14T17:13:33.119Z,13.43
2022-12-14T17:16:03.777Z,13.07
2022-12-14T17:18:36.923Z,12.75
2022-12-14T17:21:06.315Z,13.65
2022-12-14T17:23:39.650Z,13.00
2022-12-14T17:26:31.814Z,11.32
2022-12-14T17:28:59.743Z,11.20
2022-12-14T17:31:28.365Z,10.85
2022-12-14T17:33:57.298Z,11.18
2022-12-14T17:36:25.601Z,12.00
2022-12-14T17:38:53.783Z,11.00
2022-12-14T17:41:26.199Z,11.07
2022-12-14T17:43:57.921Z,11.68
2022-12-14T17:46:25.978Z,13.02
2022-12-14T17:48:54.370Z,12.27
2022-12-14T17:51:27.629Z,12.60
2022-12-14T17:53:58.463Z,12.35
2022-12-14T17:56:26.231Z,11.65
2022-12-14T17:58:54.303Z,12.95
2022-12-14T18:01:24.834Z,12.30
2022-12-14T18:03:53.047Z,10.98
2022-12-14T18:06:21.071Z,12.30
2022-12-14T18:08:49.620Z,10.38
2022-12-14T18:11:20.969Z,12.98
2022-12-14T18:13:49.432Z,11.65
2022-12-14T18:16:20.265Z,14.20
2022-12-14T18:18:49.208Z,14.57
2022-12-14T18:21:23.619Z,13.38
2022-12-14T18:23:52.242Z,13.80
2022-12-14T18:26:21.708Z,12.50
2022-12-14T18:28:52.382Z,11.77
2022-12-14T18:31:26.053Z,11.57
2022-12-14T18:33:54.066Z,11.85
2022-12-14T18:36:22.628Z,12.20
2022-12-14T18:38:51.928Z,12.77
2022-12-14T18:41:24.020Z,12.50
2022-12-14T18:43:52.963Z,15.13
2022-12-14T18:46:20.912Z,14.57
2022-12-14T18:48:48.999Z,12.20
2022-12-14T18:51:26.854Z,13.32
2022-12-14T18:53:56.786Z,14.80
2022-12-14T18:56:25.536Z,12.40
2022-12-14T18:58:53.757Z,12.82
2022-12-14T19:01:23.876Z,13.55
2022-12-14T19:03:52.429Z,14.37
2022-12-14T19:09:12.003Z,12.30
2022-12-14T19:11:44.556Z,13.95
2022-12-14T19:14:12.777Z,15.43
2022-12-14T19:16:40.799Z,14.68
2022-12-14T19:19:09.079Z,14.15
2022-12-14T19:21:37.088Z,14.15
2022-12-14T19:24:08.439Z,16.17
2022-12-14T19:26:39.014Z,16.85
2022-12-14T19:29:07.548Z,16.23
2022-12-14T19:31:35.762Z,16.42
2022-12-14T19:34:04.698Z,15.80
2022-12-14T19:36:32.645Z,16.75
2022-12-14T19:39:00.592Z,22.98
2022-12-14T19:41:28.399Z,20.55
2022-12-14T19:43:57.294Z,36.20
2022-12-14T19:46:25.744Z,23.12
2022-12-14T19:48:54.878Z,19.02
2022-12-14T19:51:23.574Z,16.10
2022-12-14T19:53:52.943Z,30.55
2022-12-14T19:56:21.159Z,20.65
2022-12-14T19:58:49.546Z,18.00
2022-12-14T20:01:18.201Z,23.48
2022-12-14T20:03:46.486Z,25.80
2022-12-14T20:06:14.526Z,16.73
2022-12-14T20:08:42.394Z,16.90
2022-12-14T20:11:11.672Z,16.83
2022-12-14T20:13:40.532Z,16.75
2022-12-14T20:16:13.950Z,18.40
2022-12-14T20:18:42.955Z,18.83
2022-12-14T20:21:14.997Z,17.52
2022-12-14T20:23:49.773Z,17.70
2022-12-14T20:26:21.183Z,18.12
2022-12-14T20:28:56.525Z,17.00
2022-12-14T20:31:25.914Z,17.73
2022-12-14T20:33:54.267Z,15.25
2022-12-14T20:36:22.360Z,15.80
2022-12-14T20:38:55.457Z,16.75
2022-12-14T20:41:24.944Z,15.35
2022-12-14T20:43:52.862Z,16.30
2022-12-14T20:46:31.719Z,17.30
2022-12-14T20:49:03.947Z,18.87
2022-12-14T20:51:35.369Z,18.05
2022-12-14T20:54:05.956Z,17.30
2022-12-14T20:56:35.899Z,16.77
2022-12-14T20:59:04.822Z,14.90
2022-12-14T21:01:32.813Z,16.20
2022-12-14T21:04:01.858Z,15.13
2022-12-14T21:06:29.824Z,17.00
2022-12-14T21:09:09.529Z,15.50
2022-12-14T21:11:59.868Z,14.77
2022-12-14T21:14:31.164Z,15.25
2022-12-14T21:19:27.713Z,12.77
2022-12-14T21:21:55.408Z,13.88
2022-12-14T21:25:00.328Z,14.40
2022-12-14T21:27:21.481Z,13.98
2022-12-14T21:29:50.589Z,13.90
2022-12-14T21:32:21.051Z,14.15
2022-12-14T21:34:49.868Z,14.30
2022-12-14T21:37:18.252Z,15.32
2022-12-14T21:39:52.338Z,14.38
2022-12-14T21:42:26.565Z,13.75
2022-12-14T21:44:55.210Z,14.80
2022-12-14T21:47:29.208Z,15.77
2022-12-14T21:49:57.539Z,14.68
2022-12-14T21:52:27.248Z,13.93
2022-12-14T21:54:55.068Z,13.88
2022-12-14T21:57:50.508Z,14.32
2022-12-14T22:00:19.755Z,14.40
2022-12-14T22:02:47.868Z,14.55
2022-12-14T22:05:15.551Z,16.15
2022-12-14T22:07:43.085Z,16.37
2022-12-14T22:10:11.058Z,14.75
2022-12-14T22:12:38.557Z,15.52
2022-12-14T22:15:06.617Z,15.52
2022-12-14T22:17:34.776Z,18.20
2022-12-14T22:20:02.743Z,17.48
2022-12-14T22:22:30.458Z,17.77
2022-12-14T22:24:59.687Z,19.05
2022-12-14T22:27:27.263Z,18.15
2022-12-14T22:29:54.828Z,22.05
2022-12-14T22:32:22.873Z,17.75
2022-12-14T22:34:50.425Z,19.00
2022-12-14T22:37:18.482Z,15.60
2022-12-14T22:39:47.777Z,17.27
2022-12-14T22:42:16.419Z,19.42
2022-12-14T22:44:44.202Z,17.70
2022-12-14T22:47:12.036Z,19.33
2022-12-14T22:49:39.720Z,17.27
2022-12-14T22:52:07.250Z,17.90
2022-12-14T22:54:39.219Z,17.35
2022-12-14T22:57:12.938Z,17.08
2022-12-14T22:59:49.778Z,17.05
2022-12-14T23:02:17.619Z,16.00
2022-12-14T23:04:45.571Z,17.15
2022-12-14T23:07:18.071Z,20.10
2022-12-14T23:10:04.595Z,19.73
2022-12-14T23:12:51.171Z,16.37
2022-12-14T23:15:37.601Z,18.75
2022-12-14T23:18:25.941Z,16.33
2022-12-14T23:21:12.858Z,18.45
2022-12-14T23:24:00.709Z,17.65
2022-12-14T23:26:47.565Z,17.75
2022-12-14T23:29:34.582Z,18.45
2022-12-14T23:32:21.048Z,16.75
2022-12-14T23:35:08.479Z,15.68
2022-12-14T23:37:55.383Z,18.12
2022-12-14T23:40:41.853Z,17.17
2022-12-14T23:43:32.986Z,19.62
2022-12-14T23:46:20.836Z,18.33
2022-12-14T23:49:10.530Z,17.35
2022-12-14T23:52:01.606Z,18.87
2022-12-14T23:54:48.231Z,18.83
2022-12-14T23:57:34.970Z,18.98
